sensor_id;sensor_type;location;lat;lon;timestamp;pressure;altitude;pressure_sealevel;temperature;humidity
72721;BME280;60835;50.974;10.322;2023-12-28T00:02:14;98052.09;;;7.71;100.00
72721;BME280;60835;50.974;10.322;2023-12-28T00:04:41;98068.16;;;7.68;100.00
72721;BME280;60835;50.974;10.322;2023-12-28T00:07:08;98060.44;;;7.67;100.00
72721;BME280;60835;50.974;10.322;2023-12-28T00:09:34;98048.34;;;7.74;100.00
72721;BME280;60835;50.974;10.322;2023-12-28T00:12:01;98037.47;;;7.59;100.00
72721;BME280;60835;50.974;10.322;2023-12-28T00:14:28;98047.09;;;7.78;100.00
72721;BME280;60835;50.974;10.322;2023-12-28T00:16:54;98034.03;;;7.76;100.00
72721;BME280;60835;50.974;10.322;2023-12-28T00:19:21;98044.88;;;7.73;100.00
72721;BME280;60835;50.974;10.322;2023-12-28T00:21:48;98062.38;;;7.65;100.00
72721;BME280;60835;50.974;10.322;2023-12-28T00:24:16;98042.59;;;7.88;100.00
72721;BME280;60835;50.974;10.322;2023-12-28T00:26:42;98050.97;;;7.74;100.00
72721;BME280;60835;50.974;10.322;2023-12-28T00:29:09;98051.53;;;7.68;100.00
72721;BME280;60835;50.974;10.322;2023-12-28T00:31:35;98057.06;;;7.74;100.00
72721;BME280;60835;50.974;10.322;2023-12-28T00:34:02;98063.69;;;7.78;100.00
72721;BME280;60835;50.974;10.322;2023-12-28T00:36:29;98070.06;;;7.76;100.00
72721;BME280;60835;50.974;10.322;2023-12-28T00:38:57;98069.78;;;7.79;100.00
72721;BME280;60835;50.974;10.322;2023-12-28T00:41:23;98076.38;;;7.92;100.00
72721;BME280;60835;50.974;10.322;2023-12-28T00:43:49;98043.94;;;7.92;100.00
72721;BME280;60835;50.974;10.322;2023-12-28T00:46:16;98050.78;;;7.85;100.00
72721;BME280;60835;50.974;10.322;2023-12-28T00:48:42;98052.22;;;7.97;100.00
72721;BME280;60835;50.974;10.322;2023-12-28T00:51:09;98054.00;;;7.79;100.00
72721;BME280;60835;50.974;10.322;2023-12-28T00:53:36;98069.75;;;7.88;100.00
72721;BME280;60835;50.974;10.322;2023-12-28T00:56:02;98046.75;;;8.08;100.00
72721;BME280;60835;50.974;10.322;2023-12-28T00:58:29;98053.31;;;8.04;100.00
72721;BME280;60835;50.974;10.322;2023-12-28T01:00:56;98062.91;;;8.23;100.00
72721;BME280;60835;50.974;10.322;2023-12-28T01:03:23;98044.59;;;8.21;100.00
72721;BME280;60835;50.974;10.322;2023-12-28T01:05:50;98046.25;;;8.22;100.00
72721;BME280;60835;50.974;10.322;2023-12-28T01:08:18;98037.47;;;8.31;100.00
72721;BME280;60835;50.974;10.322;2023-12-28T01:10:45;97996.00;;;8.33;100.00
72721;BME280;60835;50.974;10.322;2023-12-28T01:13:11;97822.53;;;8.54;100.00
72721;BME280;60835;50.974;10.322;2023-12-28T01:15:38;98019.56;;;8.35;100.00
72721;BME280;60835;50.974;10.322;2023-12-28T01:18:04;98069.06;;;8.58;100.00
72721;BME280;60835;50.974;10.322;2023-12-28T01:20:31;98110.47;;;8.48;100.00
72721;BME280;60835;50.974;10.322;2023-12-28T01:22:58;98152.59;;;8.58;100.00
72721;BME280;60835;50.974;10.322;2023-12-28T01:25:24;98178.53;;;8.63;100.00
72721;BME280;60835;50.974;10.322;2023-12-28T01:27:51;98143.53;;;8.43;100.00
72721;BME280;60835;50.974;10.322;2023-12-28T01:30:18;98158.91;;;8.47;100.00
72721;BME280;60835;50.974;10.322;2023-12-28T01:32:45;98126.41;;;8.29;100.00
72721;BME280;60835;50.974;10.322;2023-12-28T01:35:11;98150.69;;;8.50;100.00
72721;BME280;60835;50.974;10.322;2023-12-28T01:37:38;98154.63;;;8.46;100.00
72721;BME280;60835;50.974;10.322;2023-12-28T01:40:05;98161.25;;;8.50;100.00
72721;BME280;60835;50.974;10.322;2023-12-28T01:42:32;98176.09;;;8.51;100.00
72721;BME280;60835;50.974;10.322;2023-12-28T01:44:58;98151.59;;;8.41;100.00
72721;BME280;60835;50.974;10.322;2023-12-28T01:47:25;98148.13;;;8.41;100.00
72721;BME280;60835;50.974;10.322;2023-12-28T01:49:52;98179.22;;;8.65;100.00
72721;BME280;60835;50.974;10.322;2023-12-28T01:52:20;98179.97;;;8.57;100.00
72721;BME280;60835;50.974;10.322;2023-12-28T01:54:47;98202.13;;;8.64;100.00
72721;BME280;60835;50.974;10.322;2023-12-28T01:57:15;98209.91;;;8.66;100.00
72721;BME280;60835;50.974;10.322;2023-12-28T01:59:42;98224.22;;;8.81;100.00
72721;BME280;60835;50.974;10.322;2023-12-28T02:02:09;98186.63;;;8.79;100.00
72721;BME280;60835;50.974;10.322;2023-12-28T02:04:35;97908.03;;;8.52;100.00
72721;BME280;60835;50.974;10.322;2023-12-28T02:07:02;97816.91;;;8.49;100.00
72721;BME280;60835;50.974;10.322;2023-12-28T02:09:29;97547.31;;;8.39;100.00
72721;BME280;60835;50.974;10.322;2023-12-28T02:11:55;97507.66;;;8.41;100.00
72721;BME280;60835;50.974;10.322;2023-12-28T02:14:22;97560.88;;;8.44;100.00
72721;BME280;60835;50.974;10.322;2023-12-28T02:17:00;97614.25;;;8.54;100.00
72721;BME280;60835;50.974;10.322;2023-12-28T02:19:55;97652.81;;;8.64;100.00
72721;BME280;60835;50.974;10.322;2023-12-28T02:22:26;97626.44;;;8.55;100.00
72721;BME280;60835;50.974;10.322;2023-12-28T02:25:10;97636.81;;;8.49;100.00
72721;BME280;60835;50.974;10.322;2023-12-28T02:27:47;97634.34;;;8.55;100.00
72721;BME280;60835;50.974;10.322;2023-12-28T02:30:16;97658.28;;;8.62;100.00
72721;BME280;60835;50.974;10.322;2023-12-28T02:33:07;97655.78;;;8.61;100.00
72721;BME280;60835;50.974;10.322;2023-12-28T02:35:42;97647.22;;;8.58;100.00
72721;BME280;60835;50.974;10.322;2023-12-28T02:38:10;97667.34;;;8.68;100.00
72721;BME280;60835;50.974;10.322;2023-12-28T02:40:40;97666.19;;;8.70;100.00
72721;BME280;60835;50.974;10.322;2023-12-28T02:43:08;97636.00;;;8.56;100.00
72721;BME280;60835;50.974;10.322;2023-12-28T02:45:37;97650.19;;;8.64;100.00
72721;BME280;60835;50.974;10.322;2023-12-28T02:48:04;97661.41;;;8.66;100.00
72721;BME280;60835;50.974;10.322;2023-12-28T02:50:32;97662.06;;;8.68;100.00
72721;BME280;60835;50.974;10.322;2023-12-28T02:53:00;97608.66;;;8.57;100.00
72721;BME280;60835;50.974;10.322;2023-12-28T02:55:27;97581.97;;;8.61;100.00
72721;BME280;60835;50.974;10.322;2023-12-28T02:57:56;97577.69;;;8.60;100.00
72721;BME280;60835;50.974;10.322;2023-12-28T03:00:27;97532.88;;;8.60;100.00
72721;BME280;60835;50.974;10.322;2023-12-28T03:02:54;97513.06;;;8.47;100.00
72721;BME280;60835;50.974;10.322;2023-12-28T03:05:20;97480.16;;;8.60;100.00
72721;BME280;60835;50.974;10.322;2023-12-28T03:07:48;97465.94;;;8.52;100.00
72721;BME280;60835;50.974;10.322;2023-12-28T03:10:15;97493.13;;;8.45;100.00
72721;BME280;60835;50.974;10.322;2023-12-28T03:12:41;97521.16;;;8.54;100.00
72721;BME280;60835;50.974;10.322;2023-12-28T03:15:08;97524.28;;;8.74;100.00
72721;BME280;60835;50.974;10.322;2023-12-28T03:17:34;97525.94;;;8.58;100.00
72721;BME280;60835;50.974;10.322;2023-12-28T03:20:03;97519.03;;;8.66;100.00
72721;BME280;60835;50.974;10.322;2023-12-28T03:22:30;97498.75;;;8.58;100.00
72721;BME280;60835;50.974;10.322;2023-12-28T03:24:57;97489.34;;;8.55;100.00
72721;BME280;60835;50.974;10.322;2023-12-28T03:27:23;97506.97;;;8.71;100.00
72721;BME280;60835;50.974;10.322;2023-12-28T03:29:50;97488.19;;;8.58;100.00
72721;BME280;60835;50.974;10.322;2023-12-28T03:32:16;97492.31;;;8.61;100.00
72721;BME280;60835;50.974;10.322;2023-12-28T03:34:42;97499.25;;;8.70;100.00
72721;BME280;60835;50.974;10.322;2023-12-28T03:37:09;97489.22;;;8.65;100.00
72721;BME280;60835;50.974;10.322;2023-12-28T03:39:37;97482.13;;;8.57;100.00
72721;BME280;60835;50.974;10.322;2023-12-28T03:42:04;97497.44;;;8.54;100.00
72721;BME280;60835;50.974;10.322;2023-12-28T03:44:31;97514.09;;;8.54;100.00
72721;BME280;60835;50.974;10.322;2023-12-28T03:46:58;97509.78;;;8.53;100.00
72721;BME280;60835;50.974;10.322;2023-12-28T03:49:24;97516.38;;;8.41;100.00
72721;BME280;60835;50.974;10.322;2023-12-28T03:51:51;97523.28;;;8.42;100.00
72721;BME280;60835;50.974;10.322;2023-12-28T03:54:19;97527.72;;;8.42;100.00
72721;BME280;60835;50.974;10.322;2023-12-28T03:56:46;97575.84;;;8.44;100.00
72721;BME280;60835;50.974;10.322;2023-12-28T03:59:13;97612.75;;;8.44;100.00
72721;BME280;60835;50.974;10.322;2023-12-28T04:01:42;97630.69;;;8.40;100.00
72721;BME280;60835;50.974;10.322;2023-12-28T04:04:08;97665.47;;;8.44;100.00
72721;BME280;60835;50.974;10.322;2023-12-28T04:06:37;97723.25;;;8.37;100.00
72721;BME280;60835;50.974;10.322;2023-12-28T04:09:03;97717.31;;;8.35;100.00
72721;BME280;60835;50.974;10.322;2023-12-28T04:11:30;97746.13;;;8.37;100.00
72721;BME280;60835;50.974;10.322;2023-12-28T04:13:57;97753.53;;;8.33;100.00
72721;BME280;60835;50.974;10.322;2023-12-28T04:16:23;97823.69;;;8.34;100.00
72721;BME280;60835;50.974;10.322;2023-12-28T04:18:50;97910.00;;;8.32;100.00
72721;BME280;60835;50.974;10.322;2023-12-28T04:21:17;97890.28;;;8.36;100.00
72721;BME280;60835;50.974;10.322;2023-12-28T04:23:44;97892.22;;;8.34;100.00
72721;BME280;60835;50.974;10.322;2023-12-28T04:26:10;97939.97;;;8.31;100.00
72721;BME280;60835;50.974;10.322;2023-12-28T04:28:37;97950.44;;;8.41;100.00
72721;BME280;60835;50.974;10.322;2023-12-28T04:31:05;97994.88;;;8.36;100.00
72721;BME280;60835;50.974;10.322;2023-12-28T04:33:33;98020.41;;;8.35;100.00
72721;BME280;60835;50.974;10.322;2023-12-28T04:36:04;98076.50;;;8.28;100.00
72721;BME280;60835;50.974;10.322;2023-12-28T04:38:31;98090.09;;;8.23;100.00
72721;BME280;60835;50.974;10.322;2023-12-28T04:40:58;98088.44;;;8.22;100.00
72721;BME280;60835;50.974;10.322;2023-12-28T04:43:25;98133.91;;;8.24;100.00
72721;BME280;60835;50.974;10.322;2023-12-28T04:45:52;98148.94;;;8.14;100.00
72721;BME280;60835;50.974;10.322;2023-12-28T04:48:18;98164.16;;;8.20;100.00
72721;BME280;60835;50.974;10.322;2023-12-28T04:50:50;98172.50;;;8.16;100.00
72721;BME280;60835;50.974;10.322;2023-12-28T04:53:17;98165.88;;;8.12;100.00
72721;BME280;60835;50.974;10.322;2023-12-28T04:55:43;98142.22;;;8.02;100.00
72721;BME280;60835;50.974;10.322;2023-12-28T04:58:10;98152.31;;;7.97;100.00
72721;BME280;60835;50.974;10.322;2023-12-28T05:00:38;98155.94;;;7.96;100.00
72721;BME280;60835;50.974;10.322;2023-12-28T05:03:05;98155.66;;;7.99;100.00
72721;BME280;60835;50.974;10.322;2023-12-28T05:05:32;98164.13;;;7.93;100.00
72721;BME280;60835;50.974;10.322;2023-12-28T05:07:59;98154.16;;;7.87;100.00
72721;BME280;60835;50.974;10.322;2023-12-28T05:10:27;98130.34;;;7.79;100.00
72721;BME280;60835;50.974;10.322;2023-12-28T05:12:53;98136.03;;;7.84;100.00
72721;BME280;60835;50.974;10.322;2023-12-28T05:15:27;98137.41;;;7.78;100.00
72721;BME280;60835;50.974;10.322;2023-12-28T05:17:54;98128.44;;;7.81;100.00
72721;BME280;60835;50.974;10.322;2023-12-28T05:20:21;98117.78;;;7.73;100.00
72721;BME280;60835;50.974;10.322;2023-12-28T05:22:47;98105.59;;;7.72;100.00
72721;BME280;60835;50.974;10.322;2023-12-28T05:25:15;98113.09;;;7.67;100.00
72721;BME280;60835;50.974;10.322;2023-12-28T05:27:41;98097.56;;;7.64;100.00
72721;BME280;60835;50.974;10.322;2023-12-28T05:30:09;98089.56;;;7.56;100.00
72721;BME280;60835;50.974;10.322;2023-12-28T05:32:37;98079.03;;;7.56;100.00
72721;BME280;60835;50.974;10.322;2023-12-28T05:35:04;98090.97;;;7.60;100.00
72721;BME280;60835;50.974;10.322;2023-12-28T05:37:30;98070.19;;;7.57;100.00
72721;BME280;60835;50.974;10.322;2023-12-28T05:39:57;98067.66;;;7.55;100.00
72721;BME280;60835;50.974;10.322;2023-12-28T05:42:24;98072.94;;;7.55;100.00
72721;BME280;60835;50.974;10.322;2023-12-28T05:44:50;98050.38;;;7.53;100.00
72721;BME280;60835;50.974;10.322;2023-12-28T05:47:17;98048.28;;;7.56;100.00
72721;BME280;60835;50.974;10.322;2023-12-28T05:49:44;98062.56;;;7.54;100.00
72721;BME280;60835;50.974;10.322;2023-12-28T05:52:11;98050.66;;;7.50;100.00
72721;BME280;60835;50.974;10.322;2023-12-28T05:54:41;98050.25;;;7.54;100.00
72721;BME280;60835;50.974;10.322;2023-12-28T05:57:10;98046.63;;;7.55;100.00
72721;BME280;60835;50.974;10.322;2023-12-28T05:59:39;98047.44;;;7.56;100.00
72721;BME280;60835;50.974;10.322;2023-12-28T06:02:06;98043.03;;;7.56;100.00
72721;BME280;60835;50.974;10.322;2023-12-28T06:04:33;98053.25;;;7.59;100.00
72721;BME280;60835;50.974;10.322;2023-12-28T06:07:04;98047.59;;;7.54;100.00
72721;BME280;60835;50.974;10.322;2023-12-28T06:09:31;98058.53;;;7.59;100.00
72721;BME280;60835;50.974;10.322;2023-12-28T06:11:58;98035.50;;;7.61;100.00
72721;BME280;60835;50.974;10.322;2023-12-28T06:14:25;98043.84;;;7.57;100.00
72721;BME280;60835;50.974;10.322;2023-12-28T06:16:51;98043.03;;;7.56;100.00
72721;BME280;60835;50.974;10.322;2023-12-28T06:19:18;98040.63;;;7.63;100.00
72721;BME280;60835;50.974;10.322;2023-12-28T06:21:45;98033.72;;;7.62;100.00
72721;BME280;60835;50.974;10.322;2023-12-28T06:24:12;98029.69;;;7.58;100.00
72721;BME280;60835;50.974;10.322;2023-12-28T06:26:42;98032.72;;;7.63;100.00
72721;BME280;60835;50.974;10.322;2023-12-28T06:29:09;98035.03;;;7.75;100.00
72721;BME280;60835;50.974;10.322;2023-12-28T06:31:36;98028.56;;;7.70;100.00
72721;BME280;60835;50.974;10.322;2023-12-28T06:34:04;98024.91;;;7.71;100.00
72721;BME280;60835;50.974;10.322;2023-12-28T06:36:31;98021.91;;;7.66;100.00
72721;BME280;60835;50.974;10.322;2023-12-28T06:38:58;98044.06;;;7.73;100.00
72721;BME280;60835;50.974;10.322;2023-12-28T06:41:26;98040.72;;;7.71;100.00
72721;BME280;60835;50.974;10.322;2023-12-28T06:43:52;98029.38;;;7.70;100.00
72721;BME280;60835;50.974;10.322;2023-12-28T06:46:20;98020.25;;;7.65;100.00
72721;BME280;60835;50.974;10.322;2023-12-28T06:48:47;98033.81;;;7.70;100.00
72721;BME280;60835;50.974;10.322;2023-12-28T06:51:21;98026.22;;;7.67;100.00
72721;BME280;60835;50.974;10.322;2023-12-28T06:53:49;98025.22;;;7.68;100.00
72721;BME280;60835;50.974;10.322;2023-12-28T06:56:16;98021.97;;;7.56;100.00
72721;BME280;60835;50.974;10.322;2023-12-28T06:58:43;98026.38;;;7.56;100.00
72721;BME280;60835;50.974;10.322;2023-12-28T07:01:10;98038.97;;;7.62;100.00
72721;BME280;60835;50.974;10.322;2023-12-28T07:03:39;98028.97;;;7.65;100.00
72721;BME280;60835;50.974;10.322;2023-12-28T07:06:06;98037.03;;;7.64;100.00
72721;BME280;60835;50.974;10.322;2023-12-28T07:08:32;98043.81;;;7.66;100.00
72721;BME280;60835;50.974;10.322;2023-12-28T07:11:02;98030.09;;;7.63;100.00
72721;BME280;60835;50.974;10.322;2023-12-28T07:13:30;98021.66;;;7.59;100.00
72721;BME280;60835;50.974;10.322;2023-12-28T07:15:57;98040.63;;;7.63;100.00
72721;BME280;60835;50.974;10.322;2023-12-28T07:18:26;98028.25;;;7.73;100.00
72721;BME280;60835;50.974;10.322;2023-12-28T07:20:53;98031.56;;;7.75;100.00
72721;BME280;60835;50.974;10.322;2023-12-28T07:23:20;98028.94;;;7.75;100.00
72721;BME280;60835;50.974;10.322;2023-12-28T07:25:46;98037.50;;;7.77;100.00
72721;BME280;60835;50.974;10.322;2023-12-28T07:28:13;98024.59;;;7.83;100.00
72721;BME280;60835;50.974;10.322;2023-12-28T07:30:39;98029.56;;;7.86;100.00
72721;BME280;60835;50.974;10.322;2023-12-28T07:33:07;98046.78;;;7.81;100.00
72721;BME280;60835;50.974;10.322;2023-12-28T07:35:34;98033.31;;;7.84;100.00
72721;BME280;60835;50.974;10.322;2023-12-28T07:38:01;98037.53;;;7.94;100.00
72721;BME280;60835;50.974;10.322;2023-12-28T07:40:29;98043.94;;;7.92;100.00
72721;BME280;60835;50.974;10.322;2023-12-28T07:42:55;98052.22;;;7.97;100.00
72721;BME280;60835;50.974;10.322;2023-12-28T07:45:23;98042.59;;;7.88;100.00
72721;BME280;60835;50.974;10.322;2023-12-28T07:47:51;98044.78;;;7.92;100.00
72721;BME280;60835;50.974;10.322;2023-12-28T07:50:18;98035.06;;;7.93;100.00
72721;BME280;60835;50.974;10.322;2023-12-28T07:52:45;98049.59;;;7.97;100.00
72721;BME280;60835;50.974;10.322;2023-12-28T07:55:13;98037.81;;;8.01;100.00
72721;BME280;60835;50.974;10.322;2023-12-28T07:57:39;98036.41;;;7.97;100.00
72721;BME280;60835;50.974;10.322;2023-12-28T08:00:08;98056.91;;;8.03;100.00
72721;BME280;60835;50.974;10.322;2023-12-28T08:02:34;98050.38;;;8.07;100.00
72721;BME280;60835;50.974;10.322;2023-12-28T08:05:01;98057.31;;;8.08;100.00
72721;BME280;60835;50.974;10.322;2023-12-28T08:07:27;98049.78;;;8.13;100.00
72721;BME280;60835;50.974;10.322;2023-12-28T08:09:54;98062.66;;;8.16;100.00
72721;BME280;60835;50.974;10.322;2023-12-28T08:12:20;98052.69;;;8.10;100.00
72721;BME280;60835;50.974;10.322;2023-12-28T08:14:47;98069.31;;;8.20;100.00
72721;BME280;60835;50.974;10.322;2023-12-28T08:17:14;98061.78;;;8.25;100.00
72721;BME280;60835;50.974;10.322;2023-12-28T08:19:40;98061.53;;;8.28;100.00
72721;BME280;60835;50.974;10.322;2023-12-28T08:22:07;98070.41;;;8.27;100.00
72721;BME280;60835;50.974;10.322;2023-12-28T08:24:34;98063.16;;;8.29;100.00
72721;BME280;60835;50.974;10.322;2023-12-28T08:27:02;98074.47;;;8.39;100.00
72721;BME280;60835;50.974;10.322;2023-12-28T08:29:29;98058.72;;;8.30;100.00
72721;BME280;60835;50.974;10.322;2023-12-28T08:31:55;98070.66;;;8.34;100.00
72721;BME280;60835;50.974;10.322;2023-12-28T08:34:22;98079.06;;;8.37;100.00
72721;BME280;60835;50.974;10.322;2023-12-28T08:36:49;98086.66;;;8.40;100.00
72721;BME280;60835;50.974;10.322;2023-12-28T08:39:15;98078.09;;;8.38;100.00
72721;BME280;60835;50.974;10.322;2023-12-28T08:41:42;98078.84;;;8.48;100.00
72721;BME280;60835;50.974;10.322;2023-12-28T08:44:08;98069.19;;;8.39;100.00
72721;BME280;60835;50.974;10.322;2023-12-28T08:46:35;98096.34;;;8.49;100.00
72721;BME280;60835;50.974;10.322;2023-12-28T08:49:01;98082.16;;;8.50;100.00
72721;BME280;60835;50.974;10.322;2023-12-28T08:51:28;98076.88;;;8.50;100.00
72721;BME280;60835;50.974;10.322;2023-12-28T08:53:54;98081.47;;;8.48;100.00
72721;BME280;60835;50.974;10.322;2023-12-28T08:56:22;98089.47;;;8.56;100.00
72721;BME280;60835;50.974;10.322;2023-12-28T08:58:49;98084.19;;;8.56;100.00
72721;BME280;60835;50.974;10.322;2023-12-28T09:01:22;98092.13;;;8.56;100.00
72721;BME280;60835;50.974;10.322;2023-12-28T09:03:49;98085.16;;;8.55;100.00
72721;BME280;60835;50.974;10.322;2023-12-28T09:06:17;98094.00;;;8.64;100.00
72721;BME280;60835;50.974;10.322;2023-12-28T09:08:47;98082.91;;;8.61;100.00
72721;BME280;60835;50.974;10.322;2023-12-28T09:11:14;98080.34;;;8.69;100.00
72721;BME280;60835;50.974;10.322;2023-12-28T09:13:40;98098.88;;;8.77;100.00
72721;BME280;60835;50.974;10.322;2023-12-28T09:16:10;98095.56;;;8.75;100.00
72721;BME280;60835;50.974;10.322;2023-12-28T09:18:37;98100.84;;;8.75;100.00
72721;BME280;60835;50.974;10.322;2023-12-28T09:21:05;98099.44;;;8.80;100.00
72721;BME280;60835;50.974;10.322;2023-12-28T09:23:33;98115.09;;;8.82;100.00
72721;BME280;60835;50.974;10.322;2023-12-28T09:26:04;98092.94;;;8.75;100.00
72721;BME280;60835;50.974;10.322;2023-12-28T09:28:32;98122.69;;;8.85;100.00
72721;BME280;60835;50.974;10.322;2023-12-28T09:31:00;98127.22;;;8.75;100.00
72721;BME280;60835;50.974;10.322;2023-12-28T09:33:27;98124.66;;;8.83;100.00
72721;BME280;60835;50.974;10.322;2023-12-28T09:35:53;98126.25;;;8.93;100.00
72721;BME280;60835;50.974;10.322;2023-12-28T09:38:20;98136.25;;;8.90;100.00
72721;BME280;60835;50.974;10.322;2023-12-28T09:40:52;98127.09;;;8.94;100.00
72721;BME280;60835;50.974;10.322;2023-12-28T09:43:22;98128.00;;;9.02;100.00
72721;BME280;60835;50.974;10.322;2023-12-28T09:45:51;98124.81;;;8.99;100.00
72721;BME280;60835;50.974;10.322;2023-12-28T09:48:19;98134.06;;;9.03;100.00
72721;BME280;60835;50.974;10.322;2023-12-28T09:50:53;98118.66;;;9.08;100.00
72721;BME280;60835;50.974;10.322;2023-12-28T09:53:25;98127.72;;;9.13;100.00
72721;BME280;60835;50.974;10.322;2023-12-28T09:55:53;98133.41;;;9.01;100.00
72721;BME280;60835;50.974;10.322;2023-12-28T09:58:20;98159.47;;;9.39;100.00
72721;BME280;60835;50.974;10.322;2023-12-28T10:00:49;98157.38;;;9.25;100.00
72721;BME280;60835;50.974;10.322;2023-12-28T10:03:17;98174.00;;;9.43;100.00
72721;BME280;60835;50.974;10.322;2023-12-28T10:05:45;98187.94;;;9.53;100.00
72721;BME280;60835;50.974;10.322;2023-12-28T10:08:12;98157.63;;;9.57;100.00
72721;BME280;60835;50.974;10.322;2023-12-28T10:10:40;98170.47;;;9.52;100.00
72721;BME280;60835;50.974;10.322;2023-12-28T10:13:08;98159.56;;;10.07;100.00
72721;BME280;60835;50.974;10.322;2023-12-28T10:15:36;98188.94;;;9.78;100.00
72721;BME280;60835;50.974;10.322;2023-12-28T10:18:04;98183.16;;;10.26;100.00
72721;BME280;60835;50.974;10.322;2023-12-28T10:20:32;98167.47;;;10.07;100.00
72721;BME280;60835;50.974;10.322;2023-12-28T10:22:59;98174.25;;;9.75;100.00
72721;BME280;60835;50.974;10.322;2023-12-28T10:25:30;98174.81;;;9.87;100.00
72721;BME280;60835;50.974;10.322;2023-12-28T10:27:56;98164.34;;;10.37;100.00
72721;BME280;60835;50.974;10.322;2023-12-28T10:30:23;98177.06;;;10.33;100.00
72721;BME280;60835;50.974;10.322;2023-12-28T10:32:50;98181.28;;;10.60;100.00
72721;BME280;60835;50.974;10.322;2023-12-28T10:35:17;98214.06;;;10.75;100.00
72721;BME280;60835;50.974;10.322;2023-12-28T10:37:44;98184.94;;;10.67;100.00
72721;BME280;60835;50.974;10.322;2023-12-28T10:40:14;98174.63;;;10.40;100.00
72721;BME280;60835;50.974;10.322;2023-12-28T10:42:49;98186.31;;;10.71;100.00
72721;BME280;60835;50.974;10.322;2023-12-28T10:45:18;98196.88;;;10.71;100.00
72721;BME280;60835;50.974;10.322;2023-12-28T10:48:05;98181.06;;;10.95;100.00
72721;BME280;60835;50.974;10.322;2023-12-28T10:50:43;98176.44;;;10.97;100.00
72721;BME280;60835;50.974;10.322;2023-12-28T10:53:38;98194.91;;;10.73;100.00
72721;BME280;60835;50.974;10.322;2023-12-28T10:58:49;98197.84;;;10.62;100.00
72721;BME280;60835;50.974;10.322;2023-12-28T11:01:22;98196.97;;;10.46;100.00
72721;BME280;60835;50.974;10.322;2023-12-28T11:06:44;98173.06;;;10.21;100.00
72721;BME280;60835;50.974;10.322;2023-12-28T11:09:12;98197.03;;;10.28;100.00
72721;BME280;60835;50.974;10.322;2023-12-28T11:11:46;98200.28;;;10.22;100.00
72721;BME280;60835;50.974;10.322;2023-12-28T11:14:14;98194.00;;;10.15;100.00
72721;BME280;60835;50.974;10.322;2023-12-28T11:16:41;98194.81;;;10.15;100.00
72721;BME280;60835;50.974;10.322;2023-12-28T11:19:08;98177.56;;;10.11;100.00
72721;BME280;60835;50.974;10.322;2023-12-28T11:21:35;98185.13;;;10.24;100.00
72721;BME280;60835;50.974;10.322;2023-12-28T11:24:03;98172.25;;;10.29;100.00
72721;BME280;60835;50.974;10.322;2023-12-28T11:26:30;98170.16;;;10.49;100.00
72721;BME280;60835;50.974;10.322;2023-12-28T11:29:03;98176.19;;;10.25;100.00
72721;BME280;60835;50.974;10.322;2023-12-28T11:31:34;98175.59;;;10.39;100.00
72721;BME280;60835;50.974;10.322;2023-12-28T11:34:04;98173.84;;;10.22;100.00
72721;BME280;60835;50.974;10.322;2023-12-28T11:36:36;98155.59;;;10.36;100.00
72721;BME280;60835;50.974;10.322;2023-12-28T11:39:05;98166.94;;;10.21;100.00
72721;BME280;60835;50.974;10.322;2023-12-28T11:41:33;98157.03;;;10.23;100.00
72721;BME280;60835;50.974;10.322;2023-12-28T11:44:03;98157.72;;;10.33;100.00
72721;BME280;60835;50.974;10.322;2023-12-28T11:46:32;98158.66;;;10.58;100.00
72721;BME280;60835;50.974;10.322;2023-12-28T11:49:05;98169.06;;;10.67;100.00
72721;BME280;60835;50.974;10.322;2023-12-28T11:51:35;98161.13;;;10.59;100.00
72721;BME280;60835;50.974;10.322;2023-12-28T11:54:04;98151.19;;;10.53;100.00
72721;BME280;60835;50.974;10.322;2023-12-28T11:56:31;98144.94;;;10.62;100.00
72721;BME280;60835;50.974;10.322;2023-12-28T11:58:58;98133.03;;;10.58;100.00
72721;BME280;60835;50.974;10.322;2023-12-28T12:01:25;98139.81;;;10.69;100.00
72721;BME280;60835;50.974;10.322;2023-12-28T12:03:52;98148.22;;;10.48;100.00
72721;BME280;60835;50.974;10.322;2023-12-28T12:06:19;98139.88;;;11.01;100.00
72721;BME280;60835;50.974;10.322;2023-12-28T12:08:46;98132.59;;;10.87;100.00
72721;BME280;60835;50.974;10.322;2023-12-28T12:11:13;98114.91;;;11.12;100.00
72721;BME280;60835;50.974;10.322;2023-12-28T12:13:39;98121.50;;;11.40;100.00
72721;BME280;60835;50.974;10.322;2023-12-28T12:16:07;98109.63;;;11.12;100.00
72721;BME280;60835;50.974;10.322;2023-12-28T12:18:34;98113.75;;;11.30;100.00
72721;BME280;60835;50.974;10.322;2023-12-28T12:21:02;98098.66;;;10.66;100.00
72721;BME280;60835;50.974;10.322;2023-12-28T12:23:29;98102.47;;;10.72;100.00
72721;BME280;60835;50.974;10.322;2023-12-28T12:25:56;98101.81;;;11.42;100.00
72721;BME280;60835;50.974;10.322;2023-12-28T12:28:22;98082.47;;;11.18;100.00
72721;BME280;60835;50.974;10.322;2023-12-28T12:30:54;98069.66;;;11.61;100.00
72721;BME280;60835;50.974;10.322;2023-12-28T12:33:21;98086.44;;;11.14;100.00
72721;BME280;60835;50.974;10.322;2023-12-28T12:35:49;98087.94;;;11.16;100.00
72721;BME280;60835;50.974;10.322;2023-12-28T12:38:16;98087.75;;;11.34;100.00
72721;BME280;60835;50.974;10.322;2023-12-28T12:40:43;98057.66;;;10.86;100.00
72721;BME280;60835;50.974;10.322;2023-12-28T12:43:09;98077.97;;;10.54;100.00
72721;BME280;60835;50.974;10.322;2023-12-28T12:45:36;98093.03;;;11.01;100.00
72721;BME280;60835;50.974;10.322;2023-12-28T12:48:04;98076.66;;;10.66;100.00
72721;BME280;60835;50.974;10.322;2023-12-28T12:50:34;98081.31;;;10.80;100.00
72721;BME280;60835;50.974;10.322;2023-12-28T12:53:01;98078.66;;;11.12;100.00
72721;BME280;60835;50.974;10.322;2023-12-28T12:55:29;98065.91;;;10.99;100.00
72721;BME280;60835;50.974;10.322;2023-12-28T12:57:56;98074.69;;;10.84;100.00